createdAt,value
2018-12-26T00:02:24.105Z,31.93
2018-12-26T00:04:57.821Z,31.83
2018-12-26T00:07:35.534Z,32.70
2018-12-26T00:10:11.106Z,34.67
2018-12-26T00:12:41.590Z,33.30
2018-12-26T00:15:25.489Z,33.13
2018-12-26T00:17:59.212Z,32.90
2018-12-26T00:20:30.648Z,35.53
2018-12-26T00:23:00.118Z,32.33
2018-12-26T00:25:29.654Z,32.30
2018-12-26T00:28:02.207Z,38.00
2018-12-26T00:30:37.514Z,41.83
2018-12-26T00:33:06.966Z,34.33
2018-12-26T00:35:43.669Z,38.70
2018-12-26T00:38:13.158Z,34.90
2018-12-26T00:40:48.516Z,34.37
2018-12-26T00:43:18.018Z,34.73
2018-12-26T00:45:52.755Z,35.50
2018-12-26T00:48:23.233Z,33.70
2018-12-26T00:51:07.790Z,38.43
2018-12-26T00:53:41.568Z,36.17
2018-12-26T00:56:10.980Z,35.97
2018-12-26T00:58:41.469Z,32.63
2018-12-26T01:01:11.890Z,35.30
2018-12-26T01:03:53.662Z,37.93
2018-12-26T01:06:23.090Z,38.67
2018-12-26T01:08:52.734Z,40.77
2018-12-26T01:11:24.363Z,36.13
2018-12-26T01:13:55.883Z,38.20
2018-12-26T01:16:25.388Z,38.53
2018-12-26T01:18:54.945Z,33.53
2018-12-26T01:21:30.367Z,40.50
2018-12-26T01:24:03.918Z,40.20
2018-12-26T01:26:44.397Z,42.47
2018-12-26T01:29:14.914Z,40.70
2018-12-26T01:31:47.499Z,41.70
2018-12-26T01:34:17.891Z,36.30
2018-12-26T01:36:47.364Z,39.97
2018-12-26T01:39:18.802Z,39.13
2018-12-26T01:41:48.349Z,45.20
2018-12-26T01:44:20.939Z,42.03
2018-12-26T01:46:50.437Z,38.70
2018-12-26T01:49:20.854Z,39.57
2018-12-26T01:51:54.823Z,37.93
2018-12-26T01:54:24.266Z,43.13
2018-12-26T01:56:56.846Z,37.83
2018-12-26T01:59:27.332Z,39.83
2018-12-26T02:01:58.829Z,40.93
2018-12-26T02:04:33.324Z,45.80
2018-12-26T02:07:02.864Z,46.23
2018-12-26T02:09:34.446Z,46.37
2018-12-26T02:12:11.052Z,47.70
2018-12-26T02:14:41.577Z,47.97
2018-12-26T02:17:13.039Z,47.67
2018-12-26T02:19:43.642Z,44.33
2018-12-26T02:22:13.079Z,44.23
2018-12-26T02:24:43.522Z,45.67
2018-12-26T02:27:12.952Z,44.60
2018-12-26T02:29:46.371Z,45.07
2018-12-26T02:32:16.881Z,42.40
2018-12-26T02:34:46.449Z,48.97
2018-12-26T02:37:21.179Z,43.23
2018-12-26T02:39:57.677Z,49.10
2018-12-26T02:42:29.184Z,42.77
2018-12-26T02:45:00.684Z,44.47
2018-12-26T02:47:38.160Z,45.77
2018-12-26T02:50:10.884Z,45.77
2018-12-26T02:52:40.349Z,46.77
2018-12-26T02:55:11.031Z,45.40
2018-12-26T02:57:42.638Z,46.30
2018-12-26T03:00:13.133Z,47.67
2018-12-26T03:02:47.729Z,51.03
2018-12-26T03:05:17.261Z,53.93
2018-12-26T03:07:52.538Z,54.33
2018-12-26T03:10:23.999Z,55.50
2018-12-26T03:12:54.490Z,59.43
2018-12-26T03:15:26.145Z,56.63
2018-12-26T03:17:56.037Z,53.27
2018-12-26T03:20:25.540Z,55.40
2018-12-26T03:22:56.148Z,54.23
2018-12-26T03:25:25.633Z,55.50
2018-12-26T03:27:57.152Z,54.87
2018-12-26T03:30:41.047Z,55.53
2018-12-26T03:33:29.634Z,51.73
2018-12-26T03:36:00.123Z,47.53
2018-12-26T03:38:31.583Z,51.57
2018-12-26T03:41:02.055Z,52.10
2018-12-26T03:43:31.474Z,47.77
2018-12-26T03:46:02.966Z,54.33
2018-12-26T03:48:33.492Z,49.30
2018-12-26T03:51:03.914Z,48.03
2018-12-26T03:53:33.423Z,51.30
2018-12-26T03:56:08.794Z,52.37
2018-12-26T03:58:44.047Z,52.07
2018-12-26T04:01:13.611Z,48.90
2018-12-26T04:03:51.063Z,48.07
2018-12-26T04:06:26.777Z,47.30
2018-12-26T04:09:02.552Z,46.17
2018-12-26T04:11:33.213Z,50.03
2018-12-26T04:14:02.800Z,50.30
2018-12-26T04:16:38.075Z,52.87
2018-12-26T04:19:07.671Z,55.33
2018-12-26T04:21:38.245Z,55.43
2018-12-26T04:24:13.776Z,51.03
2018-12-26T04:26:43.243Z,49.33
2018-12-26T04:29:13.706Z,52.63
2018-12-26T04:31:43.229Z,52.17
2018-12-26T04:34:26.521Z,50.20
2018-12-26T04:36:56.004Z,49.73
2018-12-26T04:39:27.575Z,53.37
2018-12-26T04:42:09.268Z,51.17
2018-12-26T04:44:38.674Z,48.03
2018-12-26T04:47:10.169Z,47.40
2018-12-26T04:49:47.474Z,52.93
2018-12-26T04:52:16.905Z,50.37
2018-12-26T04:54:56.358Z,45.67
2018-12-26T04:57:27.493Z,52.40
2018-12-26T04:59:57.992Z,47.40
2018-12-26T05:02:27.449Z,44.53
2018-12-26T05:04:57.922Z,45.93
2018-12-26T05:07:27.413Z,46.17
2018-12-26T05:09:57.883Z,44.87
2018-12-26T05:12:27.398Z,42.73
2018-12-26T05:14:56.930Z,41.67
2018-12-26T05:17:27.441Z,40.37
2018-12-26T05:20:09.441Z,39.90
2018-12-26T05:22:38.863Z,41.93
2018-12-26T05:25:09.320Z,39.80
2018-12-26T05:27:38.842Z,38.83
2018-12-26T05:30:15.316Z,38.97
2018-12-26T05:32:44.897Z,42.73
2018-12-26T05:35:23.393Z,42.33
2018-12-26T05:37:54.881Z,39.23
2018-12-26T05:40:37.337Z,39.07
2018-12-26T05:43:06.773Z,41.37
2018-12-26T05:45:36.171Z,37.77
2018-12-26T05:48:06.649Z,36.43
2018-12-26T05:50:37.047Z,39.97
2018-12-26T05:53:12.377Z,39.43
2018-12-26T05:55:41.828Z,38.27
2018-12-26T05:58:18.220Z,40.53
2018-12-26T06:00:49.574Z,39.10
2018-12-26T06:03:25.176Z,36.57
2018-12-26T06:06:03.588Z,35.67
2018-12-26T06:08:35.013Z,34.87
2018-12-26T06:11:05.426Z,36.53
2018-12-26T06:13:35.917Z,39.83
2018-12-26T06:16:11.086Z,38.27
2018-12-26T06:18:41.526Z,38.17
2018-12-26T06:21:17.026Z,37.73
2018-12-26T06:23:48.531Z,38.13
2018-12-26T06:26:17.955Z,38.57
2018-12-26T06:28:47.456Z,40.07
2018-12-26T06:31:29.881Z,41.07
2018-12-26T06:34:04.570Z,38.20
2018-12-26T06:36:34.036Z,38.33
2018-12-26T06:39:04.727Z,38.83
2018-12-26T06:41:35.933Z,38.03
2018-12-26T06:44:13.348Z,36.57
2018-12-26T06:46:43.787Z,37.20
2018-12-26T06:49:13.314Z,37.70
2018-12-26T06:51:42.839Z,39.07
2018-12-26T06:54:12.394Z,35.90
2018-12-26T06:56:41.838Z,40.57
2018-12-26T06:59:11.303Z,36.77
2018-12-26T07:01:42.738Z,37.13
2018-12-26T07:04:24.355Z,36.53
2018-12-26T07:06:53.815Z,37.43
2018-12-26T07:09:29.196Z,35.47
2018-12-26T07:12:03.740Z,38.17
2018-12-26T07:14:33.463Z,38.83
2018-12-26T07:17:03.899Z,39.13
2018-12-26T07:19:51.840Z,37.73
2018-12-26T07:22:21.314Z,36.67
2018-12-26T07:24:50.756Z,36.73
2018-12-26T07:27:27.543Z,38.50
2018-12-26T07:29:57.030Z,41.23
2018-12-26T07:32:32.278Z,37.93
2018-12-26T07:35:02.757Z,39.53
2018-12-26T07:37:32.289Z,33.90
2018-12-26T07:40:04.856Z,40.87
2018-12-26T07:42:34.327Z,36.10
2018-12-26T07:45:03.825Z,36.00
2018-12-26T07:47:34.276Z,39.80
2018-12-26T07:50:04.003Z,33.50
2018-12-26T07:52:35.493Z,39.33
2018-12-26T07:55:04.846Z,37.00
2018-12-26T07:57:34.372Z,36.83
2018-12-26T08:00:13.259Z,36.03
2018-12-26T08:02:42.772Z,34.40
2018-12-26T08:05:12.230Z,34.30
2018-12-26T08:07:42.094Z,35.27
2018-12-26T08:10:12.610Z,35.60
2018-12-26T08:12:44.227Z,31.67
2018-12-26T08:15:24.793Z,32.13
2018-12-26T08:18:03.431Z,36.53
2018-12-26T08:20:32.932Z,33.47
2018-12-26T08:23:11.467Z,30.67
2018-12-26T08:25:40.967Z,31.93
2018-12-26T08:28:10.494Z,33.77
2018-12-26T08:30:46.764Z,33.77
2018-12-26T08:33:16.369Z,31.07
2018-12-26T08:35:45.775Z,32.80
2018-12-26T08:38:25.522Z,31.13
2018-12-26T08:40:54.968Z,33.37
2018-12-26T08:43:26.448Z,30.33
2018-12-26T08:45:57.933Z,31.50
2018-12-26T08:48:27.407Z,28.63
2018-12-26T08:51:03.772Z,31.57
2018-12-26T08:53:33.402Z,29.57
2018-12-26T08:56:02.863Z,29.10
2018-12-26T08:58:38.197Z,29.90
2018-12-26T09:01:10.866Z,32.17
2018-12-26T09:03:40.295Z,29.20
2018-12-26T09:06:20.699Z,28.63
2018-12-26T09:08:53.277Z,29.43
2018-12-26T09:11:22.773Z,29.17
2018-12-26T09:13:53.179Z,35.33
2018-12-26T09:16:22.889Z,30.27
2018-12-26T09:18:52.404Z,30.23
2018-12-26T09:21:35.171Z,31.33
2018-12-26T09:24:11.515Z,30.70
2018-12-26T09:26:41.645Z,31.10
2018-12-26T09:29:11.089Z,28.10
2018-12-26T09:31:43.883Z,28.83
2018-12-26T09:34:20.180Z,29.13
2018-12-26T09:36:49.758Z,29.73
2018-12-26T09:39:21.703Z,29.83
2018-12-26T09:42:04.864Z,27.53
2018-12-26T09:44:34.312Z,28.30
2018-12-26T09:47:03.771Z,26.70
2018-12-26T09:49:33.459Z,28.13
2018-12-26T09:52:03.949Z,30.30
2018-12-26T09:54:37.399Z,29.70
2018-12-26T09:57:06.909Z,27.65
2018-12-26T09:59:38.580Z,28.10
2018-12-26T10:02:09.142Z,26.43
2018-12-26T10:04:38.613Z,27.27
2018-12-26T10:07:09.022Z,24.93
2018-12-26T10:09:40.569Z,23.90
2018-12-26T10:12:10.015Z,25.57
2018-12-26T10:14:40.644Z,28.00
2018-12-26T10:17:10.063Z,25.60
2018-12-26T10:19:39.557Z,23.07
2018-12-26T10:22:09.012Z,25.13
2018-12-26T10:24:38.464Z,25.37
2018-12-26T10:27:09.969Z,25.10
2018-12-26T10:29:39.332Z,25.00
2018-12-26T10:32:19.533Z,25.23
2018-12-26T10:34:52.150Z,26.30
2018-12-26T10:37:22.591Z,23.43
2018-12-26T10:39:53.024Z,25.20
2018-12-26T10:42:31.576Z,25.53
2018-12-26T10:45:05.837Z,23.07
2018-12-26T10:47:35.268Z,23.97
2018-12-26T10:50:07.462Z,21.23
2018-12-26T10:52:44.933Z,22.50
2018-12-26T10:55:14.392Z,24.97
2018-12-26T10:57:45.304Z,26.47
2018-12-26T11:00:15.078Z,23.87
2018-12-26T11:02:47.751Z,23.77
2018-12-26T11:05:29.671Z,28.23
2018-12-26T11:08:01.303Z,24.27
2018-12-26T11:10:32.808Z,24.20
2018-12-26T11:13:13.285Z,24.53
2018-12-26T11:15:42.862Z,21.50
2018-12-26T11:18:19.228Z,22.70
2018-12-26T11:20:54.566Z,24.93
2018-12-26T11:23:24.414Z,22.17
2018-12-26T11:25:53.909Z,24.23
2018-12-26T11:28:25.295Z,21.57
2018-12-26T11:30:55.823Z,19.17
2018-12-26T11:33:31.279Z,23.63
2018-12-26T11:36:00.729Z,31.90
2018-12-26T11:38:37.525Z,21.60
2018-12-26T11:41:09.068Z,19.57
2018-12-26T11:44:03.300Z,20.77
2018-12-26T11:46:32.912Z,22.63
2018-12-26T11:49:02.320Z,18.97
2018-12-26T11:51:33.979Z,19.97
2018-12-26T11:54:03.543Z,22.17
2018-12-26T11:56:33.140Z,19.67
2018-12-26T11:59:03.607Z,20.97
2018-12-26T12:01:38.395Z,20.07
2018-12-26T12:04:07.857Z,20.07
2018-12-26T12:06:39.343Z,19.97
2018-12-26T12:09:17.853Z,17.60
2018-12-26T12:12:06.337Z,18.17
2018-12-26T12:14:35.860Z,19.30
2018-12-26T12:17:06.380Z,18.90
2018-12-26T12:19:36.861Z,17.80
2018-12-26T12:22:07.408Z,17.03
2018-12-26T12:24:36.825Z,16.27
2018-12-26T12:27:08.348Z,18.03
2018-12-26T12:29:39.817Z,15.17
2018-12-26T12:32:15.130Z,17.43
2018-12-26T12:34:45.824Z,17.93
2018-12-26T12:37:15.530Z,17.93
2018-12-26T12:39:45.038Z,17.60
2018-12-26T12:42:16.504Z,16.97
2018-12-26T12:44:48.068Z,17.87
2018-12-26T12:47:19.759Z,17.83
2018-12-26T12:49:57.017Z,16.03
2018-12-26T12:52:50.405Z,16.47
2018-12-26T12:55:19.822Z,16.53
2018-12-26T12:57:58.226Z,17.03
2018-12-26T13:00:28.671Z,17.50
2018-12-26T13:03:00.620Z,14.80
2018-12-26T13:05:29.874Z,14.90
2018-12-26T13:07:59.322Z,17.90
2018-12-26T13:10:50.649Z,16.37
2018-12-26T13:13:20.549Z,14.67
2018-12-26T13:15:51.000Z,15.70
2018-12-26T13:18:20.376Z,15.90
2018-12-26T13:20:51.924Z,17.57
2018-12-26T13:23:21.402Z,17.70
2018-12-26T13:25:50.836Z,12.40
2018-12-26T13:28:20.271Z,15.87
2018-12-26T13:30:49.967Z,17.17
2018-12-26T13:33:19.385Z,14.83
2018-12-26T13:35:48.793Z,14.23
2018-12-26T13:38:18.219Z,16.83
2018-12-26T13:40:47.622Z,16.10
2018-12-26T13:43:17.030Z,15.97
2018-12-26T13:45:46.440Z,16.07
2018-12-26T13:48:15.827Z,15.10
2018-12-26T13:50:45.284Z,15.10
2018-12-26T13:53:14.722Z,16.43
2018-12-26T13:55:44.126Z,17.30
2018-12-26T13:58:13.536Z,14.10
2018-12-26T14:00:43.060Z,14.83
2018-12-26T14:03:24.479Z,17.30
2018-12-26T14:05:57.054Z,15.33
2018-12-26T14:08:26.539Z,14.80
2018-12-26T14:10:58.224Z,16.43
2018-12-26T14:13:27.656Z,15.23
2018-12-26T14:15:58.180Z,15.17
2018-12-26T14:18:35.681Z,31.40
2018-12-26T14:21:05.186Z,14.57
2018-12-26T14:23:35.536Z,14.60
2018-12-26T14:26:05.072Z,14.47
2018-12-26T14:28:35.537Z,14.57
2018-12-26T14:31:05.145Z,15.13
2018-12-26T14:33:35.733Z,15.90
2018-12-26T14:36:06.196Z,15.70
2018-12-26T14:38:44.513Z,14.97
2018-12-26T14:41:13.930Z,15.93
2018-12-26T14:43:49.769Z,13.47
2018-12-26T14:46:19.259Z,17.03
2018-12-26T14:49:03.823Z,15.77
2018-12-26T14:51:34.840Z,14.37
2018-12-26T14:54:04.525Z,16.87
2018-12-26T14:56:41.912Z,15.07
2018-12-26T14:59:12.939Z,15.37
2018-12-26T15:01:42.858Z,16.07
2018-12-26T15:04:14.449Z,15.00
2018-12-26T15:06:45.082Z,17.13
2018-12-26T15:09:14.811Z,18.27
2018-12-26T15:11:44.348Z,18.70
2018-12-26T15:14:14.352Z,18.23
2018-12-26T15:16:51.399Z,17.83
2018-12-26T15:19:23.311Z,18.90
2018-12-26T15:21:55.909Z,18.93
2018-12-26T15:24:27.866Z,17.67
2018-12-26T15:27:00.189Z,16.27
2018-12-26T15:29:33.960Z,18.47
2018-12-26T15:32:04.997Z,18.10
2018-12-26T15:34:37.074Z,18.80
2018-12-26T15:37:08.298Z,16.10
2018-12-26T15:39:45.581Z,17.70
2018-12-26T15:42:25.784Z,18.60
2018-12-26T15:44:59.965Z,16.93
2018-12-26T15:47:31.917Z,15.40
2018-12-26T15:50:05.553Z,16.70
2018-12-26T15:52:37.006Z,17.40
2018-12-26T15:55:10.253Z,17.20
2018-12-26T15:57:42.843Z,14.63
2018-12-26T16:00:25.390Z,14.93
2018-12-26T16:03:00.072Z,16.73
2018-12-26T16:05:33.068Z,18.67
2018-12-26T16:08:03.228Z,15.50
2018-12-26T16:10:38.006Z,17.10
2018-12-26T16:13:13.959Z,17.10
2018-12-26T16:15:46.605Z,17.37
2018-12-26T16:18:17.917Z,18.20
2018-12-26T16:20:55.412Z,16.27
2018-12-26T16:23:26.786Z,16.57
2018-12-26T16:25:57.378Z,15.77
2018-12-26T16:28:29.299Z,16.93
2018-12-26T16:31:03.354Z,14.90
2018-12-26T16:33:34.304Z,16.20
2018-12-26T16:36:05.965Z,14.33
2018-12-26T16:38:36.881Z,15.13
2018-12-26T16:41:11.595Z,13.63
2018-12-26T16:43:45.157Z,16.40
2018-12-26T16:46:16.144Z,15.10
2018-12-26T16:48:50.618Z,14.73
2018-12-26T16:51:31.465Z,15.13
2018-12-26T16:54:06.019Z,12.73
2018-12-26T16:56:41.423Z,15.83
2018-12-26T16:59:12.472Z,15.93
2018-12-26T17:01:43.782Z,16.37
2018-12-26T17:04:14.538Z,15.53
2018-12-26T17:06:46.269Z,16.43
2018-12-26T17:09:27.176Z,16.13
2018-12-26T17:12:05.607Z,15.10
2018-12-26T17:14:38.056Z,17.87
2018-12-26T17:17:10.085Z,13.53
2018-12-26T17:19:41.790Z,15.70
2018-12-26T17:22:12.591Z,16.73
2018-12-26T17:24:46.011Z,15.63
2018-12-26T17:27:16.964Z,15.17
2018-12-26T17:29:48.391Z,15.60
2018-12-26T17:32:20.749Z,15.47
2018-12-26T17:34:53.381Z,19.73
2018-12-26T17:37:25.935Z,18.73
2018-12-26T17:39:56.945Z,18.53
2018-12-26T17:42:28.885Z,27.13
2018-12-26T17:44:58.283Z,19.60
2018-12-26T17:47:27.908Z,21.07
2018-12-26T17:50:33.401Z,21.97
2018-12-26T17:53:03.393Z,22.97
2018-12-26T17:56:01.807Z,22.63
2018-12-26T17:58:35.633Z,17.97
2018-12-26T18:01:19.374Z,17.90
2018-12-26T18:03:53.650Z,24.30
2018-12-26T18:06:23.159Z,23.10
2018-12-26T18:08:58.873Z,22.70
2018-12-26T18:11:34.283Z,22.30
2018-12-26T18:14:05.788Z,27.63
2018-12-26T18:16:35.219Z,19.80
2018-12-26T18:19:10.822Z,37.80
2018-12-26T18:21:40.282Z,26.00
2018-12-26T18:24:09.757Z,19.03
2018-12-26T18:26:41.269Z,17.37
2018-12-26T18:29:17.003Z,18.13
2018-12-26T18:31:46.534Z,18.47
2018-12-26T18:34:16.017Z,14.73
2018-12-26T18:36:49.639Z,17.10
2018-12-26T18:39:19.182Z,16.97
2018-12-26T18:41:49.687Z,17.17
2018-12-26T18:44:19.135Z,15.57
2018-12-26T18:47:03.892Z,15.70
2018-12-26T18:49:39.669Z,15.87
2018-12-26T18:52:10.133Z,15.40
2018-12-26T18:54:51.955Z,16.33
2018-12-26T18:57:21.488Z,23.13
2018-12-26T18:59:58.880Z,19.33
2018-12-26T19:02:28.635Z,16.23
2018-12-26T19:04:58.082Z,16.30
2018-12-26T19:07:27.531Z,17.40
2018-12-26T19:10:06.354Z,18.97
2018-12-26T19:12:35.926Z,18.43
2018-12-26T19:15:07.426Z,22.17
2018-12-26T19:17:36.919Z,23.97
2018-12-26T19:20:10.428Z,16.70
2018-12-26T19:22:39.880Z,15.50
2018-12-26T19:25:09.395Z,15.97
2018-12-26T19:27:46.698Z,15.07
2018-12-26T19:30:17.222Z,15.53
2018-12-26T19:32:51.094Z,17.23
2018-12-26T19:35:20.473Z,17.63
2018-12-26T19:37:51.046Z,15.83
2018-12-26T19:40:22.683Z,14.00
2018-12-26T19:42:54.113Z,17.07
2018-12-26T19:45:23.466Z,16.17
2018-12-26T19:47:53.997Z,16.60
2018-12-26T19:50:23.541Z,14.63
2018-12-26T19:52:57.150Z,15.03
2018-12-26T19:55:26.705Z,15.70
2018-12-26T19:57:57.157Z,15.03
2018-12-26T20:00:30.729Z,15.10
2018-12-26T20:03:02.160Z,16.33
2018-12-26T20:05:31.758Z,15.77
2018-12-26T20:08:04.291Z,15.07
2018-12-26T20:10:34.855Z,14.87
2018-12-26T20:13:05.659Z,13.73
2018-12-26T20:15:37.128Z,14.97
2018-12-26T20:18:06.551Z,14.57
2018-12-26T20:20:36.084Z,13.83
2018-12-26T20:23:05.569Z,13.87
2018-12-26T20:25:35.118Z,13.10
2018-12-26T20:28:22.871Z,13.77
2018-12-26T20:30:55.447Z,15.63
2018-12-26T20:33:25.918Z,15.97
2018-12-26T20:35:55.422Z,13.33
2018-12-26T20:38:24.912Z,14.17
2018-12-26T20:40:54.613Z,13.37
2018-12-26T20:43:24.174Z,13.50
2018-12-26T20:45:53.697Z,14.43
2018-12-26T20:48:26.254Z,15.97
2018-12-26T20:51:06.760Z,14.67
2018-12-26T20:53:36.287Z,14.70
2018-12-26T20:56:07.720Z,14.50
2018-12-26T20:58:40.329Z,15.67
2018-12-26T21:01:10.777Z,14.73
2018-12-26T21:03:47.328Z,14.20
2018-12-26T21:06:17.797Z,15.80
2018-12-26T21:08:47.299Z,15.40
2018-12-26T21:11:17.714Z,16.40
2018-12-26T21:13:51.216Z,16.33
2018-12-26T21:16:21.682Z,15.50
2018-12-26T21:18:51.096Z,16.60
2018-12-26T21:21:21.534Z,15.17
2018-12-26T21:23:50.936Z,14.83
2018-12-26T21:26:21.373Z,13.40
2018-12-26T21:28:56.932Z,13.63
2018-12-26T21:31:27.397Z,14.57
2018-12-26T21:33:56.909Z,13.67
2018-12-26T21:36:28.431Z,12.57
2018-12-26T21:38:57.878Z,13.27
2018-12-26T21:41:27.390Z,15.93
2018-12-26T21:43:56.929Z,15.43
2018-12-26T21:46:27.529Z,12.17
2018-12-26T21:48:56.973Z,12.90
2018-12-26T21:51:26.500Z,12.80
2018-12-26T21:54:06.261Z,12.40
2018-12-26T21:56:36.771Z,11.80
2018-12-26T21:59:13.277Z,11.47
2018-12-26T22:01:42.855Z,12.37
2018-12-26T22:04:12.274Z,9.47
2018-12-26T22:06:42.079Z,11.63
2018-12-26T22:09:21.807Z,9.87
2018-12-26T22:12:01.368Z,9.30
2018-12-26T22:14:30.954Z,10.97
2018-12-26T22:17:03.525Z,9.33
2018-12-26T22:19:32.961Z,10.90
2018-12-26T22:22:04.401Z,8.93
2018-12-26T22:24:35.900Z,9.17
2018-12-26T22:27:05.471Z,9.37
2018-12-26T22:29:34.922Z,9.37
2018-12-26T22:32:06.429Z,9.70
2018-12-26T22:34:36.868Z,9.67
2018-12-26T22:37:06.392Z,9.60
2018-12-26T22:39:39.985Z,10.27
2018-12-26T22:42:10.462Z,8.07
2018-12-26T22:44:40.056Z,9.07
2018-12-26T22:47:09.574Z,8.83
2018-12-26T22:49:40.006Z,9.00
2018-12-26T22:52:20.511Z,10.00
2018-12-26T22:54:49.973Z,9.17
2018-12-26T22:57:20.434Z,8.53
2018-12-26T22:59:54.993Z,10.27
2018-12-26T23:02:24.474Z,8.53
2018-12-26T23:04:58.010Z,9.83
2018-12-26T23:07:27.549Z,8.77
2018-12-26T23:09:57.015Z,8.47
2018-12-26T23:12:26.417Z,8.43
2018-12-26T23:14:55.828Z,8.57
2018-12-26T23:17:25.332Z,9.07
2018-12-26T23:19:54.751Z,8.73
2018-12-26T23:22:24.278Z,8.20
2018-12-26T23:24:56.938Z,8.90
2018-12-26T23:27:33.675Z,7.93
2018-12-26T23:30:04.326Z,9.50
2018-12-26T23:32:46.727Z,9.27
2018-12-26T23:35:12.190Z,8.23
2018-12-26T23:37:41.690Z,9.13
2018-12-26T23:40:12.021Z,9.50
2018-12-26T23:42:42.533Z,9.47
2018-12-26T23:45:11.916Z,9.43
2018-12-26T23:47:42.509Z,10.00
2018-12-26T23:50:12.960Z,10.10
2018-12-26T23:52:44.455Z,8.63
2018-12-26T23:55:13.935Z,10.73
2018-12-26T23:57:46.419Z,9.40
